Time;durP1;ratioP1;P1;durP2;ratioP2;P2;SDS_P1;SDS_P2;PMS_P1;PMS_P2;Temp;Humidity;BMP_temperature;BMP_pressure;BME280_temperature;BME280_humidity;BME280_pressure;Samples;Min_cycle;Max_cycle;Signal;HPM_P1;HPM_P2
2023/01/03 00:00:30;;;;;;;5.42;3.82;;;;;;;;;;4908894;28;10000546;-80
2023/01/03 00:02:56;;;;;;;6.72;3.88;;;;;;;;;;5066060;28;20259;-80
2023/01/03 00:05:22;;;;;;;5.47;4.00;;;;;;;;;;5067094;28;20099;-79
2023/01/03 00:07:48;;;;;;;5.40;3.90;;;;;;;;;;5068073;28;20019;-80
2023/01/03 00:10:14;;;;;;;4.97;4.20;;;;;;;;;;5061001;28;20044;-80
2023/01/03 00:12:40;;;;;;;6.30;4.53;;;;;;;;;;5063518;28;20048;-79
2023/01/03 00:15:06;;;;;;;4.65;4.00;;;;;;;;;;5063202;28;20115;-79
2023/01/03 00:17:32;;;;;;;6.88;4.25;;;;;;;;;;5068676;28;20020;-78
2023/01/03 00:19:58;;;;;;;4.97;4.00;;;;;;;;;;5065565;28;20696;-79
2023/01/03 00:22:24;;;;;;;5.43;4.18;;;;;;;;;;5071334;28;20040;-79
2023/01/03 00:24:51;;;;;;;4.70;4.13;;;;;;;;;;5080269;28;20016;-79
2023/01/03 00:27:17;;;;;;;5.82;3.92;;;;;;;;;;5079153;28;20031;-79
2023/01/03 00:29:44;;;;;;;7.25;4.53;;;;;;;;;;5058385;28;20112;-79
2023/01/03 00:32:10;;;;;;;5.10;4.60;;;;;;;;;;5050372;28;20369;-78
2023/01/03 00:34:36;;;;;;;6.78;4.82;;;;;;;;;;5064998;28;20056;-79
2023/01/03 00:37:02;;;;;;;5.78;5.10;;;;;;;;;;5068977;28;20033;-79
2023/01/03 00:39:28;;;;;;;8.85;4.88;;;;;;;;;;5066942;28;20032;-79
2023/01/03 00:41:54;;;;;;;6.47;4.45;;;;;;;;;;5063628;28;20059;-79
2023/01/03 00:44:20;;;;;;;6.35;4.50;;;;;;;;;;5063710;28;20047;-77
2023/01/03 00:46:46;;;;;;;6.35;4.60;;;;;;;;;;5064054;28;22911;-78
2023/01/03 00:49:12;;;;;;;9.07;4.80;;;;;;;;;;5061901;28;20087;-78
2023/01/03 00:51:38;;;;;;;6.57;5.28;;;;;;;;;;5067334;28;20047;-79
2023/01/03 00:54:05;;;;;;;6.75;5.03;;;;;;;;;;5058554;28;20033;-79
2023/01/03 00:56:32;;;;;;;7.95;5.47;;;;;;;;;;5067764;28;20024;-78
2023/01/03 00:58:59;;;;;;;8.48;5.63;;;;;;;;;;5064340;28;20710;-78
2023/01/03 01:01:28;;;;;;;7.10;4.88;;;;;;;;;;5056919;28;20219;-79
2023/01/03 01:03:58;;;;;;;8.40;5.22;;;;;;;;;;5060472;28;20035;-79
2023/01/03 01:06:29;;;;;;;8.77;5.63;;;;;;;;;;5061635;28;20081;-79
2023/01/03 01:08:56;;;;;;;10.30;8.25;;;;;;;;;;5061460;28;20024;-79
2023/01/03 01:11:22;;;;;;;11.10;6.50;;;;;;;;;;5062327;28;20037;-79
2023/01/03 01:13:49;;;;;;;7.88;6.22;;;;;;;;;;5056956;28;20029;-79
2023/01/03 01:16:16;;;;;;;8.43;6.65;;;;;;;;;;5069296;28;20033;-79
2023/01/03 01:18:43;;;;;;;11.02;6.28;;;;;;;;;;5059986;28;20024;-79
2023/01/03 01:21:10;;;;;;;7.15;5.88;;;;;;;;;;5064836;28;20587;-78
2023/01/03 01:23:37;;;;;;;6.93;5.43;;;;;;;;;;5057248;28;20021;-78
2023/01/03 01:26:03;;;;;;;7.93;5.60;;;;;;;;;;5073207;28;20032;-78
2023/01/03 01:28:29;;;;;;;6.63;5.28;;;;;;;;;;5063199;28;20037;-79
2023/01/03 01:30:57;;;;;;;7.00;5.80;;;;;;;;;;5067206;28;20038;-78
2023/01/03 01:33:23;;;;;;;10.70;6.05;;;;;;;;;;5057430;28;20025;-79
2023/01/03 01:35:49;;;;;;;11.20;6.07;;;;;;;;;;5062444;28;20365;-79
2023/01/03 01:38:15;;;;;;;8.95;6.28;;;;;;;;;;5065379;28;20085;-79
2023/01/03 01:40:41;;;;;;;12.25;6.90;;;;;;;;;;5066125;28;20044;-78
2023/01/03 01:46:11;;;;;;;8.27;6.45;;;;;;;;;;5067307;28;20051;-79
2023/01/03 01:48:37;;;;;;;9.20;7.25;;;;;;;;;;5059330;28;20051;-79
2023/01/03 01:51:03;;;;;;;10.88;7.10;;;;;;;;;;5060194;28;20020;-78
2023/01/03 01:53:33;;;;;;;10.13;7.00;;;;;;;;;;5066041;28;20035;-78
2023/01/03 01:56:03;;;;;;;9.07;6.75;;;;;;;;;;5070329;28;20032;-78
2023/01/03 01:58:32;;;;;;;10.43;7.10;;;;;;;;;;5077580;28;20035;-78
2023/01/03 02:00:58;;;;;;;11.05;7.43;;;;;;;;;;5058589;28;20035;-78
2023/01/03 02:03:24;;;;;;;10.70;7.40;;;;;;;;;;5056526;28;20021;-77
2023/01/03 02:05:53;;;;;;;10.85;6.85;;;;;;;;;;5059970;28;20031;-78
2023/01/03 02:08:19;;;;;;;9.88;7.22;;;;;;;;;;5062222;28;20024;-78
2023/01/03 02:10:45;;;;;;;8.43;6.60;;;;;;;;;;5058475;28;20051;-78
2023/01/03 02:13:13;;;;;;;9.48;7.07;;;;;;;;;;5054856;28;20671;-78
2023/01/03 02:16:02;;;;;;;10.50;7.43;;;;;;;;;;5063509;28;20035;-78
2023/01/03 02:18:28;;;;;;;8.70;6.68;;;;;;;;;;5056958;28;20504;-78
2023/01/03 02:20:54;;;;;;;10.05;6.93;;;;;;;;;;5058519;28;20017;-77
2023/01/03 02:23:29;;;;;;;9.25;7.07;;;;;;;;;;5052160;28;20029;-78
2023/01/03 02:26:14;;;;;;;11.52;7.13;;;;;;;;;;5060444;28;20025;-78
2023/01/03 02:28:51;;;;;;;7.82;6.90;;;;;;;;;;5064339;28;20033;-78
2023/01/03 02:31:23;;;;;;;10.50;6.80;;;;;;;;;;5060586;28;20490;-78
2023/01/03 02:34:14;;;;;;;12.85;6.90;;;;;;;;;;5059062;28;20090;-78
2023/01/03 02:36:59;;;;;;;12.23;6.70;;;;;;;;;;5065063;28;20048;-78
2023/01/03 02:39:28;;;;;;;7.95;6.60;;;;;;;;;;5060352;28;20053;-78
2023/01/03 02:45:02;;;;;;;11.38;6.43;;;;;;;;;;5058061;28;20562;-78
2023/01/03 02:47:31;;;;;;;9.60;6.05;;;;;;;;;;5049930;28;20084;-78
2023/01/03 02:49:58;;;;;;;10.23;6.15;;;;;;;;;;5057852;28;20024;-78
2023/01/03 02:52:26;;;;;;;8.35;6.32;;;;;;;;;;5065347;28;20099;-78
2023/01/03 02:55:03;;;;;;;11.65;6.95;;;;;;;;;;5056115;28;20085;-78
2023/01/03 02:57:35;;;;;;;7.55;6.20;;;;;;;;;;5059528;28;20020;-78
2023/01/03 03:00:07;;;;;;;10.30;6.85;;;;;;;;;;5069493;28;20031;-78
2023/01/03 03:02:34;;;;;;;9.95;7.00;;;;;;;;;;5059103;28;20029;-78
2023/01/03 03:05:01;;;;;;;11.73;6.85;;;;;;;;;;5070421;28;20028;-77
2023/01/03 03:07:31;;;;;;;9.00;6.50;;;;;;;;;;5061800;28;20025;-78
2023/01/03 03:15:31;;;;;;;9.73;6.25;;;;;;;;;;5056373;28;20047;-78
2023/01/03 03:18:01;;;;;;;10.55;6.00;;;;;;;;;;5064766;28;20024;-78
2023/01/03 03:26:03;;;;;;;6.85;5.55;;;;;;;;;;5060514;28;20129;-78
2023/01/03 03:28:35;;;;;;;12.15;8.48;;;;;;;;;;5058161;28;20039;-78
2023/01/03 03:31:03;;;;;;;11.15;6.25;;;;;;;;;;5064090;28;20035;-78
2023/01/03 03:33:32;;;;;;;7.65;5.60;;;;;;;;;;5064134;28;20139;-78
2023/01/03 03:36:07;;;;;;;9.65;5.05;;;;;;;;;;5051690;28;20128;-78
2023/01/03 03:38:35;;;;;;;8.32;5.18;;;;;;;;;;5050841;28;20144;-78
2023/01/03 03:46:58;;;;;;;6.72;4.68;;;;;;;;;;4998320;28;20045;-78
2023/01/03 03:49:39;;;;;;;8.35;5.05;;;;;;;;;;5060479;28;20101;-78
2023/01/03 03:52:20;;;;;;;10.27;5.78;;;;;;;;;;5054724;28;20094;-77
2023/01/03 03:54:49;;;;;;;9.07;4.78;;;;;;;;;;5059966;28;20457;-78
2023/01/03 03:57:18;;;;;;;6.75;5.18;;;;;;;;;;5058525;28;20340;-78
2023/01/03 03:59:47;;;;;;;6.75;4.65;;;;;;;;;;5064830;28;20508;-78
2023/01/03 04:02:14;;;;;;;5.50;4.57;;;;;;;;;;5063085;28;20024;-78
2023/01/03 04:04:43;;;;;;;6.53;4.82;;;;;;;;;;5065253;28;20056;-78
2023/01/03 04:07:09;;;;;;;9.27;5.72;;;;;;;;;;5059152;28;20043;-78
2023/01/03 04:09:35;;;;;;;12.30;8.20;;;;;;;;;;5062648;28;20055;-78
2023/01/03 04:12:01;;;;;;;10.35;7.97;;;;;;;;;;5062103;28;20508;-78
2023/01/03 04:14:27;;;;;;;10.65;7.55;;;;;;;;;;5071898;28;20016;-78
2023/01/03 04:16:53;;;;;;;9.13;6.30;;;;;;;;;;5063060;28;20128;-78
2023/01/03 04:19:19;;;;;;;7.65;4.63;;;;;;;;;;5065016;28;20384;-77
2023/01/03 04:21:45;;;;;;;8.32;4.55;;;;;;;;;;5067224;28;20027;-78
2023/01/03 04:24:11;;;;;;;8.35;4.40;;;;;;;;;;5065817;28;20079;-78
2023/01/03 04:26:37;;;;;;;5.85;4.10;;;;;;;;;;5063525;28;21947;-77
2023/01/03 04:29:03;;;;;;;5.40;3.92;;;;;;;;;;5066824;28;20119;-78
2023/01/03 04:31:29;;;;;;;7.38;4.15;;;;;;;;;;5062183;28;20025;-76
2023/01/03 04:33:55;;;;;;;8.15;4.00;;;;;;;;;;5058212;28;20167;-78
2023/01/03 04:36:21;;;;;;;9.38;3.78;;;;;;;;;;5063323;28;20099;-77
2023/01/03 04:38:47;;;;;;;6.93;3.72;;;;;;;;;;5060582;28;20020;-79
2023/01/03 04:41:13;;;;;;;7.60;3.70;;;;;;;;;;5059101;28;20027;-78
2023/01/03 04:46:24;;;;;;;6.85;4.63;;;;;;;;;;5058037;28;20039;-78
2023/01/03 04:48:50;;;;;;;12.23;7.00;;;;;;;;;;5067988;28;20735;-78
2023/01/03 04:51:16;;;;;;;16.02;5.95;;;;;;;;;;5062572;28;20071;-77
2023/01/03 04:53:42;;;;;;;8.68;4.68;;;;;;;;;;5058159;28;20111;-77
2023/01/03 04:56:08;;;;;;;8.35;4.80;;;;;;;;;;5069507;28;20055;-77
2023/01/03 04:58:34;;;;;;;7.50;4.40;;;;;;;;;;5073718;28;20529;-77
2023/01/03 05:01:00;;;;;;;7.32;3.97;;;;;;;;;;5063266;28;20030;-78
2023/01/03 05:03:27;;;;;;;9.77;5.70;;;;;;;;;;5060885;28;20491;-78
2023/01/03 05:05:53;;;;;;;11.63;5.60;;;;;;;;;;5067959;28;20024;-77
2023/01/03 05:08:19;;;;;;;9.20;5.07;;;;;;;;;;5062674;28;20043;-78
2023/01/03 05:10:45;;;;;;;7.72;4.72;;;;;;;;;;5064724;28;20032;-77
2023/01/03 05:13:11;;;;;;;7.28;4.70;;;;;;;;;;5068880;28;20123;-78
2023/01/03 05:15:38;;;;;;;8.65;4.65;;;;;;;;;;5068206;28;20438;-78
2023/01/03 05:18:04;;;;;;;8.98;5.78;;;;;;;;;;5063622;28;20040;-77
2023/01/03 05:26:02;;;;;;;8.13;5.20;;;;;;;;;;5059243;28;20418;-77
2023/01/03 05:28:28;;;;;;;10.05;5.82;;;;;;;;;;5067680;28;20033;-77
2023/01/03 05:30:56;;;;;;;16.30;9.20;;;;;;;;;;5076949;28;20032;-77
2023/01/03 05:33:22;;;;;;;23.30;12.07;;;;;;;;;;5068744;28;20036;-77
2023/01/03 05:35:49;;;;;;;10.35;7.13;;;;;;;;;;5055806;28;20047;-77
2023/01/03 05:38:15;;;;;;;9.70;5.30;;;;;;;;;;5065838;28;20025;-77
2023/01/03 05:40:41;;;;;;;9.93;6.18;;;;;;;;;;5060701;28;20090;-78
2023/01/03 05:43:07;;;;;;;10.40;6.03;;;;;;;;;;5049643;28;20013;-77
2023/01/03 05:45:37;;;;;;;9.30;5.50;;;;;;;;;;5077425;28;20147;-77
2023/01/03 05:48:03;;;;;;;8.85;5.22;;;;;;;;;;5064478;28;20036;-78
2023/01/03 05:50:29;;;;;;;8.32;4.80;;;;;;;;;;5058335;28;20075;-78
2023/01/03 05:52:55;;;;;;;7.97;4.47;;;;;;;;;;5062431;28;20524;-78
2023/01/03 05:55:22;;;;;;;6.47;4.10;;;;;;;;;;5062984;28;20106;-78
2023/01/03 05:57:48;;;;;;;8.20;3.88;;;;;;;;;;5073231;28;20089;-78
2023/01/03 06:00:14;;;;;;;5.75;3.55;;;;;;;;;;5059726;28;20052;-77
2023/01/03 06:02:40;;;;;;;6.03;3.33;;;;;;;;;;5053030;28;20020;-78
2023/01/03 06:05:06;;;;;;;5.95;3.60;;;;;;;;;;5061161;28;20431;-78
2023/01/03 06:07:35;;;;;;;7.60;3.33;;;;;;;;;;5059538;28;21606;-78
2023/01/03 06:10:01;;;;;;;6.90;3.10;;;;;;;;;;5061771;28;20494;-78
2023/01/03 06:12:27;;;;;;;4.78;3.22;;;;;;;;;;5057638;28;20028;-78
2023/01/03 06:14:53;;;;;;;6.85;3.40;;;;;;;;;;5058543;28;20566;-77
2023/01/03 06:20:05;;;;;;;8.00;3.97;;;;;;;;;;5057233;28;20048;-77
2023/01/03 06:22:30;;;;;;;7.13;3.25;;;;;;;;;;5062129;28;20020;-77
2023/01/03 06:24:56;;;;;;;5.22;3.53;;;;;;;;;;5062258;28;20028;-77
2023/01/03 06:27:22;;;;;;;8.43;4.50;;;;;;;;;;5059459;28;20120;-77
2023/01/03 06:29:48;;;;;;;9.32;4.18;;;;;;;;;;5048785;28;20039;-78
2023/01/03 06:32:14;;;;;;;5.72;3.53;;;;;;;;;;5048223;28;20041;-77
2023/01/03 06:34:40;;;;;;;4.03;2.80;;;;;;;;;;5055229;28;20127;-77
2023/01/03 06:37:06;;;;;;;4.47;3.30;;;;;;;;;;5048755;28;20024;-78
2023/01/03 06:39:32;;;;;;;5.25;3.15;;;;;;;;;;5054410;28;20083;-77
2023/01/03 06:42:38;;;;;;;9.60;3.22;;;;;;;;;;5049925;28;20116;-77
2023/01/03 06:53:11;;;;;;;4.15;3.13;;;;;;;;;;5052097;28;20072;-77
2023/01/03 06:53:11;;;;;;;5.13;3.75;;;;;;;;;;5061630;28;20461;-77
2023/01/03 06:55:37;;;;;;;7.60;4.18;;;;;;;;;;5059638;28;20549;-77
2023/01/03 06:58:03;;;;;;;4.85;3.30;;;;;;;;;;5057800;28;20024;-77
2023/01/03 07:00:29;;;;;;;4.82;3.05;;;;;;;;;;5065903;28;20032;-76
2023/01/03 07:02:55;;;;;;;4.80;3.22;;;;;;;;;;5066684;28;20020;-77
2023/01/03 07:05:21;;;;;;;5.65;3.63;;;;;;;;;;5063426;28;20084;-78
2023/01/03 07:07:47;;;;;;;5.47;3.80;;;;;;;;;;5064527;28;20017;-78
2023/01/03 07:10:13;;;;;;;5.35;4.00;;;;;;;;;;5052967;28;20025;-77
2023/01/03 07:15:24;;;;;;;5.13;3.92;;;;;;;;;;5073212;28;20059;-78
2023/01/03 07:17:50;;;;;;;4.82;3.97;;;;;;;;;;5068232;28;20476;-77
2023/01/03 07:20:16;;;;;;;5.22;3.65;;;;;;;;;;5069846;28;20016;-77
2023/01/03 07:22:42;;;;;;;5.72;3.47;;;;;;;;;;5064993;28;20527;-78
2023/01/03 07:25:08;;;;;;;3.97;3.00;;;;;;;;;;5052053;28;20017;-77
2023/01/03 07:27:34;;;;;;;4.07;3.05;;;;;;;;;;5057084;28;20493;-77
2023/01/03 07:30:00;;;;;;;4.40;3.03;;;;;;;;;;5057084;28;20024;-77
2023/01/03 07:32:26;;;;;;;4.05;2.72;;;;;;;;;;5063650;28;20064;-77
2023/01/03 07:34:52;;;;;;;4.60;2.60;;;;;;;;;;5071720;28;20036;-77
2023/01/03 07:37:18;;;;;;;4.78;2.70;;;;;;;;;;5059318;28;20040;-76
2023/01/03 07:39:44;;;;;;;3.55;2.65;;;;;;;;;;5075771;28;20488;-77
2023/01/03 07:44:55;;;;;;;7.95;3.53;;;;;;;;;;5066000;28;20032;-77
2023/01/03 07:47:21;;;;;;;7.47;3.63;;;;;;;;;;5068787;28;20044;-76
2023/01/03 07:49:47;;;;;;;5.95;3.55;;;;;;;;;;5069042;28;20044;-76
2023/01/03 07:52:13;;;;;;;7.50;4.03;;;;;;;;;;5066880;28;20027;-77
2023/01/03 07:54:39;;;;;;;11.10;5.22;;;;;;;;;;5062925;28;20508;-77
2023/01/03 07:57:04;;;;;;;6.68;4.60;;;;;;;;;;5076662;28;20031;-77
2023/01/03 07:59:31;;;;;;;8.82;4.43;;;;;;;;;;5064387;28;20024;-77
2023/01/03 08:01:57;;;;;;;9.07;5.72;;;;;;;;;;5070903;28;20464;-76
2023/01/03 08:04:23;;;;;;;10.60;6.20;;;;;;;;;;5080377;28;20062;-77
2023/01/03 08:06:49;;;;;;;10.65;6.47;;;;;;;;;;5071069;28;20132;-76
2023/01/03 08:14:45;;;;;;;7.85;5.13;;;;;;;;;;5067320;28;20031;-76
2023/01/03 08:17:11;;;;;;;7.68;5.43;;;;;;;;;;5066961;28;20036;-80
2023/01/03 08:19:36;;;;;;;7.60;5.32;;;;;;;;;;5073755;28;20054;-77
2023/01/03 08:22:02;;;;;;;11.02;5.97;;;;;;;;;;5059818;28;20963;-77
2023/01/03 08:24:28;;;;;;;7.72;5.63;;;;;;;;;;5064056;28;20031;-84
2023/01/03 08:26:54;;;;;;;9.50;5.80;;;;;;;;;;5064343;28;20029;-84
2023/01/03 08:29:20;;;;;;;9.05;6.43;;;;;;;;;;5066576;28;20383;-83
2023/01/03 08:31:49;;;;;;;10.15;7.07;;;;;;;;;;5064570;28;20028;-83
2023/01/03 08:34:16;;;;;;;8.85;6.95;;;;;;;;;;5066091;28;20072;-84
2023/01/03 08:36:47;;;;;;;10.68;5.90;;;;;;;;;;5067179;28;20056;-84
2023/01/03 08:39:16;;;;;;;8.88;5.38;;;;;;;;;;5064398;28;20464;-83
2023/01/03 08:41:45;;;;;;;8.52;5.45;;;;;;;;;;5061287;28;20021;-83
2023/01/03 08:44:11;;;;;;;10.23;5.38;;;;;;;;;;5057685;28;20112;-84
2023/01/03 08:46:42;;;;;;;8.07;5.10;;;;;;;;;;5063893;28;20020;-83
2023/01/03 08:49:08;;;;;;;7.28;4.90;;;;;;;;;;5063811;28;20382;-84
2023/01/03 08:51:34;;;;;;;6.82;5.13;;;;;;;;;;5056288;28;20024;-83
2023/01/03 08:54:00;;;;;;;9.60;5.63;;;;;;;;;;5068151;28;20039;-83
2023/01/03 08:56:27;;;;;;;10.00;5.55;;;;;;;;;;5075061;28;20441;-83
2023/01/03 08:58:56;;;;;;;7.35;5.47;;;;;;;;;;5066577;28;20055;-83
2023/01/03 09:01:22;;;;;;;8.43;6.00;;;;;;;;;;5065326;28;20029;-83
2023/01/03 09:03:48;;;;;;;9.10;6.13;;;;;;;;;;5069503;28;20459;-83
2023/01/03 09:06:14;;;;;;;10.02;6.65;;;;;;;;;;5063181;28;20039;-84
2023/01/03 09:08:40;;;;;;;10.55;7.28;;;;;;;;;;5073355;28;20429;-83
2023/01/03 09:11:07;;;;;;;8.45;5.53;;;;;;;;;;5048722;28;20032;-83
2023/01/03 09:13:34;;;;;;;10.60;5.40;;;;;;;;;;5078837;28;20036;-83
2023/01/03 09:16:01;;;;;;;7.20;5.05;;;;;;;;;;5071684;28;20020;-83
2023/01/03 09:18:27;;;;;;;6.30;4.82;;;;;;;;;;5066954;28;20036;-83
2023/01/03 09:20:53;;;;;;;9.20;5.53;;;;;;;;;;5066706;28;20436;-92
2023/01/03 09:23:19;;;;;;;9.93;5.43;;;;;;;;;;5064391;28;20025;-93
2023/01/03 09:25:46;;;;;;;9.13;5.07;;;;;;;;;;5067106;28;20036;-94
2023/01/03 09:28:12;;;;;;;12.35;4.60;;;;;;;;;;5067521;28;20032;-91
2023/01/03 09:30:38;;;;;;;9.25;5.13;;;;;;;;;;5056848;28;20066;-92
2023/01/03 09:33:04;;;;;;;9.73;5.28;;;;;;;;;;5066828;28;20040;-92
2023/01/03 09:35:30;;;;;;;8.13;5.18;;;;;;;;;;5061979;28;20023;-93
2023/01/03 09:37:57;;;;;;;8.75;4.60;;;;;;;;;;5068123;28;20182;-92
2023/01/03 09:40:23;;;;;;;7.75;4.53;;;;;;;;;;5065119;28;20020;-82
2023/01/03 09:45:37;;;;;;;6.32;4.70;;;;;;;;;;5065055;28;20047;-83
2023/01/03 09:48:04;;;;;;;7.68;5.40;;;;;;;;;;5057043;28;20550;-82
2023/01/03 09:50:33;;;;;;;7.05;4.40;;;;;;;;;;5057619;28;20025;-83
2023/01/03 10:03:42;;;;;;;6.28;4.43;;;;;;;;;;5059795;28;20127;-82
2023/01/03 10:05:17;;;;;;;5.90;3.90;;;;;;;;;;4957073;28;20039;-81
2023/01/03 10:08:02;;;;;;;6.00;3.92;;;;;;;;;;5068507;28;20041;-82
2023/01/03 10:10:37;;;;;;;9.43;4.60;;;;;;;;;;5060436;28;20091;-82
2023/01/03 10:13:17;;;;;;;7.03;4.78;;;;;;;;;;5068554;28;20041;-82
2023/01/03 10:16:01;;;;;;;7.47;4.50;;;;;;;;;;5062867;28;20396;-82
2023/01/03 10:18:52;;;;;;;5.88;4.15;;;;;;;;;;5062147;28;20035;-82
2023/01/03 10:21:21;;;;;;;7.85;4.10;;;;;;;;;;5058200;28;20063;-82
2023/01/03 10:23:48;;;;;;;7.50;4.43;;;;;;;;;;5070982;28;20565;-82
2023/01/03 10:26:14;;;;;;;7.40;4.93;;;;;;;;;;5061340;28;20032;-82
2023/01/03 10:28:42;;;;;;;7.65;4.50;;;;;;;;;;5070485;28;20241;-82
2023/01/03 10:31:24;;;;;;;8.10;4.30;;;;;;;;;;5061751;28;20041;-81
2023/01/03 10:33:50;;;;;;;7.03;4.13;;;;;;;;;;5068299;28;20220;-82
2023/01/03 10:36:18;;;;;;;7.15;4.90;;;;;;;;;;5062618;28;20036;-82
2023/01/03 10:38:44;;;;;;;10.73;5.75;;;;;;;;;;5056967;28;20114;-82
2023/01/03 10:41:15;;;;;;;6.97;4.70;;;;;;;;;;5062821;28;20050;-82
2023/01/03 10:43:42;;;;;;;7.10;4.88;;;;;;;;;;5066690;28;20665;-82
2023/01/03 10:46:21;;;;;;;9.52;4.95;;;;;;;;;;5058260;28;20016;-82
2023/01/03 10:48:48;;;;;;;7.78;5.38;;;;;;;;;;5057236;28;20155;-82
2023/01/03 10:51:30;;;;;;;7.40;5.10;;;;;;;;;;5055259;28;20055;-83
2023/01/03 10:53:57;;;;;;;12.60;5.40;;;;;;;;;;5062556;28;20028;-82
2023/01/03 10:56:24;;;;;;;8.88;5.35;;;;;;;;;;5056540;28;20028;-83
2023/01/03 10:59:13;;;;;;;9.65;5.20;;;;;;;;;;5059346;28;20017;-82
2023/01/03 11:01:39;;;;;;;7.50;5.20;;;;;;;;;;5063926;28;20112;-82
2023/01/03 11:04:12;;;;;;;6.47;4.80;;;;;;;;;;5063838;28;20024;-80
2023/01/03 11:06:38;;;;;;;;;;;;;;;;;;5061872;28;20037;-82
2023/01/03 11:09:11;;;;;;;10.43;5.00;;;;;;;;;;5063837;28;19912;-83
2023/01/03 11:11:41;;;;;;;7.13;4.40;;;;;;;;;;5051000;28;20063;-83
2023/01/03 11:14:25;;;;;;;7.88;3.97;;;;;;;;;;5063279;28;20029;-82
2023/01/03 11:17:11;;;;;;;4.55;3.70;;;;;;;;;;5075776;28;20537;-82
2023/01/03 11:19:37;;;;;;;5.53;3.67;;;;;;;;;;5073167;28;20031;-82
2023/01/03 11:22:05;;;;;;;4.78;3.50;;;;;;;;;;5066614;28;20021;-83
2023/01/03 11:24:49;;;;;;;7.88;3.65;;;;;;;;;;5065327;28;20017;-82
2023/01/03 11:27:18;;;;;;;10.05;4.60;;;;;;;;;;5069846;28;20029;-82
2023/01/03 11:29:44;;;;;;;6.28;5.05;;;;;;;;;;5065750;28;20036;-82
2023/01/03 11:32:13;;;;;;;7.63;4.07;;;;;;;;;;5059620;28;20032;-82
2023/01/03 11:34:54;;;;;;;7.55;4.07;;;;;;;;;;5059719;28;20087;-82
2023/01/03 11:37:20;;;;;;;8.68;4.38;;;;;;;;;;5076674;28;20092;-82
2023/01/03 11:39:59;;;;;;;6.82;3.72;;;;;;;;;;5063447;28;20025;-82
2023/01/03 11:42:25;;;;;;;5.95;3.95;;;;;;;;;;5065248;28;20029;-83
2023/01/03 11:44:53;;;;;;;7.70;3.70;;;;;;;;;;5062117;28;20025;-82
2023/01/03 11:47:45;;;;;;;4.70;3.65;;;;;;;;;;5067397;28;20071;-82
2023/01/03 11:50:15;;;;;;;7.60;4.20;;;;;;;;;;5054982;28;20119;-82
2023/01/03 11:53:02;;;;;;;6.10;3.75;;;;;;;;;;5063236;28;20032;-82
2023/01/03 11:55:46;;;;;;;7.75;4.45;;;;;;;;;;5052158;28;20029;-82
2023/01/03 11:58:25;;;;;;;6.45;3.78;;;;;;;;;;5085084;28;20024;-81
2023/01/03 12:01:01;;;;;;;5.57;3.88;;;;;;;;;;5073001;28;20063;-85
2023/01/03 12:03:45;;;;;;;5.53;3.67;;;;;;;;;;5061318;28;20260;-86
2023/01/03 12:06:17;;;;;;;6.55;3.92;;;;;;;;;;5061986;28;20400;-86
2023/01/03 12:08:46;;;;;;;8.23;3.78;;;;;;;;;;5065526;28;20033;-86
2023/01/03 12:11:21;;;;;;;4.82;3.60;;;;;;;;;;5064367;28;20369;-86
2023/01/03 12:13:55;;;;;;;6.47;3.40;;;;;;;;;;5053160;28;20098;-86
2023/01/03 12:16:25;;;;;;;6.03;3.85;;;;;;;;;;5068331;28;20029;-85
2023/01/03 12:18:51;;;;;;;6.90;3.80;;;;;;;;;;5068322;28;20008;-86
2023/01/03 12:21:17;;;;;;;4.32;3.35;;;;;;;;;;5075557;28;20087;-86
2023/01/03 12:23:45;;;;;;;5.80;3.50;;;;;;;;;;5058738;28;20107;-86
2023/01/03 12:26:13;;;;;;;5.78;3.60;;;;;;;;;;5058524;28;20037;-86
2023/01/03 12:28:51;;;;;;;5.05;3.42;;;;;;;;;;5056250;28;20450;-86
2023/01/03 12:31:20;;;;;;;8.63;4.32;;;;;;;;;;5062697;28;20067;-86
2023/01/03 12:33:53;;;;;;;8.13;4.28;;;;;;;;;;5074945;28;20680;-86
2023/01/03 12:36:28;;;;;;;8.13;4.28;;;;;;;;;;5059498;28;20114;-83
2023/01/03 12:39:17;;;;;;;7.50;4.03;;;;;;;;;;5063405;28;20089;-86
2023/01/03 12:41:45;;;;;;;5.80;3.38;;;;;;;;;;5060294;28;20028;-87
2023/01/03 12:44:32;;;;;;;7.55;3.00;;;;;;;;;;5062282;28;20489;-86
2023/01/03 12:46:58;;;;;;;8.07;2.95;;;;;;;;;;5046965;28;20094;-82
2023/01/03 12:49:43;;;;;;;4.30;2.65;;;;;;;;;;5065372;28;20102;-84
2023/01/03 12:52:12;;;;;;;7.20;3.75;;;;;;;;;;5056646;28;20044;-84
2023/01/03 12:54:45;;;;;;;7.15;4.63;;;;;;;;;;5053470;28;20029;-84
2023/01/03 12:57:11;;;;;;;;;;;;;;;;;;5064459;28;20021;-84
2023/01/03 12:59:49;;;;;;;7.53;4.10;;;;;;;;;;5060090;28;20395;-84
2023/01/03 13:02:20;;;;;;;9.40;4.03;;;;;;;;;;5047937;28;20052;-85
2023/01/03 13:04:49;;;;;;;10.32;5.18;;;;;;;;;;5059397;28;20066;-85
2023/01/03 13:07:22;;;;;;;7.75;3.22;;;;;;;;;;5069966;28;20039;-84
2023/01/03 13:09:53;;;;;;;10.13;5.00;;;;;;;;;;5067294;28;20246;-84
2023/01/03 13:12:21;;;;;;;6.55;3.50;;;;;;;;;;5054676;28;20118;-85
2023/01/03 13:14:56;;;;;;;6.45;3.13;;;;;;;;;;5053816;28;20063;-82
2023/01/03 13:17:24;;;;;;;7.60;4.53;;;;;;;;;;5056034;28;20066;-86
2023/01/03 13:20:18;;;;;;;8.23;4.20;;;;;;;;;;5053175;28;20024;-85
2023/01/03 13:22:44;;;;;;;;;;;;;;;;;;5056711;28;20024;-85
2023/01/03 13:25:25;;;;;;;6.82;3.80;;;;;;;;;;5075270;28;19910;-83
2023/01/03 13:27:52;;;;;;;5.65;3.13;;;;;;;;;;5059776;28;20145;-84
2023/01/03 13:30:22;;;;;;;8.43;3.67;;;;;;;;;;5062469;28;20123;-84
2023/01/03 13:32:50;;;;;;;7.57;4.25;;;;;;;;;;5062539;28;20395;-85
2023/01/03 13:35:16;;;;;;;9.80;5.18;;;;;;;;;;5052942;28;20032;-85
2023/01/03 13:37:42;;;;;;;5.25;3.30;;;;;;;;;;5056998;28;20420;-83
2023/01/03 13:40:15;;;;;;;5.45;2.85;;;;;;;;;;5058934;28;20455;-84
2023/01/03 13:42:42;;;;;;;5.00;2.38;;;;;;;;;;5062745;28;20332;-84
2023/01/03 13:45:27;;;;;;;8.55;2.95;;;;;;;;;;5068769;28;20029;-83
2023/01/03 13:47:53;;;;;;;5.68;2.70;;;;;;;;;;5056466;28;20120;-85
2023/01/03 13:50:23;;;;;;;4.95;2.83;;;;;;;;;;5052437;28;20539;-85
2023/01/03 13:52:58;;;;;;;9.77;3.85;;;;;;;;;;5058517;28;20021;-88
2023/01/03 13:55:37;;;;;;;9.10;4.35;;;;;;;;;;5061923;28;20028;-85
2023/01/03 13:58:23;;;;;;;9.88;3.22;;;;;;;;;;5064294;28;20028;-80
2023/01/03 14:00:53;;;;;;;4.78;2.50;;;;;;;;;;5045517;28;20029;-84
2023/01/03 14:03:38;;;;;;;4.70;2.20;;;;;;;;;;5060951;28;20165;-83
2023/01/03 14:06:19;;;;;;;6.70;2.97;;;;;;;;;;5059473;28;20040;-84
2023/01/03 14:09:08;;;;;;;10.52;2.83;;;;;;;;;;5057556;28;20372;-85
2023/01/03 14:11:53;;;;;;;7.25;2.42;;;;;;;;;;5057859;28;20020;-84
2023/01/03 14:14:21;;;;;;;3.97;2.38;;;;;;;;;;5062723;28;20418;-85
2023/01/03 14:16:49;;;;;;;4.78;2.20;;;;;;;;;;5062348;28;20036;-85
2023/01/03 14:19:27;;;;;;;3.83;1.92;;;;;;;;;;5051873;28;20087;-84
2023/01/03 14:21:58;;;;;;;5.38;2.60;;;;;;;;;;5053958;28;20013;-84
2023/01/03 14:24:28;;;;;;;7.05;3.30;;;;;;;;;;5057528;28;20032;-84
2023/01/03 14:26:54;;;;;;;8.38;2.42;;;;;;;;;;5057727;28;20032;-85
2023/01/03 14:29:22;;;;;;;7.15;2.80;;;;;;;;;;5058294;28;20024;-86
2023/01/03 14:31:51;;;;;;;4.50;2.67;;;;;;;;;;5052022;28;20028;-86
2023/01/03 14:34:49;;;;;;;8.55;2.95;;;;;;;;;;5062019;28;20455;-85
2023/01/03 14:37:17;;;;;;;6.50;3.45;;;;;;;;;;5029016;28;20602;-87
2023/01/03 14:39:53;;;;;;;11.20;4.03;;;;;;;;;;5061095;28;20028;-87
2023/01/03 14:42:19;;;;;;;6.07;3.40;;;;;;;;;;5055177;28;20028;-84
2023/01/03 14:44:51;;;;;;;6.07;3.15;;;;;;;;;;5059525;28;20565;-83
2023/01/03 14:47:17;;;;;;;5.65;3.58;;;;;;;;;;5056255;28;20048;-86
2023/01/03 14:49:48;;;;;;;9.38;5.03;;;;;;;;;;5058910;28;20029;-86
2023/01/03 14:52:17;;;;;;;7.07;4.18;;;;;;;;;;5056493;28;20047;-83
2023/01/03 14:54:46;;;;;;;8.18;4.53;;;;;;;;;;5053897;28;20036;-87
2023/01/03 14:57:19;;;;;;;9.07;4.93;;;;;;;;;;5064320;28;20473;-87
2023/01/03 14:59:46;;;;;;;6.85;4.45;;;;;;;;;;5058335;28;20531;-86
2023/01/03 15:02:12;;;;;;;13.50;5.65;;;;;;;;;;5060994;28;20445;-85
2023/01/03 15:04:42;;;;;;;7.63;5.13;;;;;;;;;;5055281;28;20395;-86
2023/01/03 15:07:24;;;;;;;9.07;5.63;;;;;;;;;;5054694;28;20029;-83
2023/01/03 15:10:00;;;;;;;8.65;5.63;;;;;;;;;;5063755;28;20032;-85
2023/01/03 15:12:27;;;;;;;8.77;6.07;;;;;;;;;;5048610;28;20055;-85
2023/01/03 15:14:53;;;;;;;11.07;6.28;;;;;;;;;;5056730;28;20035;-88
2023/01/03 15:17:22;;;;;;;9.75;6.63;;;;;;;;;;5061311;28;20105;-87
2023/01/03 15:19:57;;;;;;;9.52;6.78;;;;;;;;;;5061291;28;20020;-84
2023/01/03 15:22:25;;;;;;;10.00;6.93;;;;;;;;;;5052110;28;20048;-88
2023/01/03 15:25:02;;;;;;;11.15;7.03;;;;;;;;;;5054239;28;20043;-84
2023/01/03 15:27:37;;;;;;;8.93;7.50;;;;;;;;;;5051255;28;20144;-81
2023/01/03 15:30:19;;;;;;;13.40;7.35;;;;;;;;;;5058509;28;20037;-83
2023/01/03 15:32:46;;;;;;;14.00;8.18;;;;;;;;;;5064735;28;20389;-83
2023/01/03 15:35:31;;;;;;;9.98;7.47;;;;;;;;;;5054941;28;20020;-83
2023/01/03 15:37:59;;;;;;;11.82;7.30;;;;;;;;;;5049528;28;20014;-85
2023/01/03 15:40:24;;;;;;;14.02;7.13;;;;;;;;;;5059337;28;20481;-85
2023/01/03 15:45:38;;;;;;;9.60;6.35;;;;;;;;;;5060230;28;20098;-86
2023/01/03 15:48:05;;;;;;;12.32;7.28;;;;;;;;;;5058227;28;20052;-81
2023/01/03 15:50:46;;;;;;;11.00;6.85;;;;;;;;;;5064199;28;20439;-82
2023/01/03 15:53:31;;;;;;;12.98;6.97;;;;;;;;;;5053058;28;20090;-83
2023/01/03 15:56:03;;;;;;;15.25;7.70;;;;;;;;;;5066153;28;20327;-83
2023/01/03 15:58:29;;;;;;;11.90;7.60;;;;;;;;;;5061914;28;20119;-84
2023/01/03 16:00:56;;;;;;;12.93;7.25;;;;;;;;;;5058954;28;20020;-86